Time;durP1;ratioP1;P1;durP2;ratioP2;P2;SDS_P1;SDS_P2;PMS_P1;PMS_P2;Temp;Humidity;BMP_temperature;BMP_pressure;BME280_temperature;BME280_humidity;BME280_pressure;Samples;Min_cycle;Max_cycle;Signal;HPM_P1;HPM_P2
2021/12/10 00:00:58;;;;;;;5.65;4.03;;;7.70;77.10;;;;;;5046834;28;20021;-86
2021/12/10 00:03:44;;;;;;;5.32;3.75;;;7.70;77.20;;;;;;5060025;28;20033;-84
2021/12/10 00:06:25;;;;;;;6.07;3.97;;;7.70;77.20;;;;;;5055840;28;20086;-83
2021/12/10 00:08:59;;;;;;;5.25;3.70;;;7.70;77.20;;;;;;5040022;28;20078;-84
2021/12/10 00:11:30;;;;;;;6.63;4.20;;;7.70;77.10;;;;;;5039017;28;20033;-82
2021/12/10 00:13:57;;;;;;;4.93;3.65;;;7.70;77.10;;;;;;5055455;28;20127;-85
2021/12/10 00:16:23;;;;;;;6.85;3.75;;;7.70;77.10;;;;;;5038501;28;20052;-86
2021/12/10 00:18:55;;;;;;;5.22;3.83;;;7.60;77.10;;;;;;5054947;28;20029;-84
2021/12/10 00:21:25;;;;;;;5.55;3.90;;;7.60;77.10;;;;;;5055432;28;20028;-82
2021/12/10 00:23:54;;;;;;;5.70;3.70;;;7.60;77.10;;;;;;5055939;28;20040;-83
2021/12/10 00:26:20;;;;;;;5.18;3.60;;;7.60;77.10;;;;;;5038393;28;20021;-82
2021/12/10 00:28:47;;;;;;;5.55;3.88;;;7.60;77.10;;;;;;5038504;28;20036;-82
2021/12/10 00:34:40;;;;;;;5.38;3.80;;;7.60;77.10;;;;;;5056114;28;20032;-83
2021/12/10 00:37:10;;;;;;;5.88;4.20;;;7.60;77.20;;;;;;5040071;28;20124;-84
2021/12/10 00:39:52;;;;;;;5.53;3.80;;;7.50;77.00;;;;;;5039502;28;20167;-83
2021/12/10 00:42:21;;;;;;;6.32;3.95;;;7.50;77.20;;;;;;5056754;28;20078;-83
2021/12/10 00:44:48;;;;;;;6.10;4.22;;;7.60;77.20;;;;;;5038710;28;20033;-83
2021/12/10 00:47:14;;;;;;;4.68;3.67;;;7.50;77.10;;;;;;5039590;28;20060;-83
2021/12/10 00:49:40;;;;;;;4.80;3.58;;;7.50;77.10;;;;;;5055574;28;20025;-82
2021/12/10 00:52:08;;;;;;;5.00;3.50;;;7.50;77.00;;;;;;5038921;28;20021;-87
2021/12/10 00:54:35;;;;;;;4.47;3.60;;;7.50;77.10;;;;;;5039432;28;20037;-85
2021/12/10 00:57:01;;;;;;;6.30;3.90;;;7.50;77.40;;;;;;5055575;28;20032;-82
2021/12/10 00:59:27;;;;;;;4.47;3.38;;;7.50;77.00;;;;;;5039000;28;20025;-82
2021/12/10 01:01:53;;;;;;;5.43;3.85;;;7.50;77.10;;;;;;5037690;28;20025;-82
2021/12/10 01:04:25;;;;;;;6.43;3.97;;;7.40;77.00;;;;;;5037325;28;20029;-82
2021/12/10 01:06:54;;;;;;;5.25;3.67;;;7.40;77.00;;;;;;5054281;28;20021;-82
2021/12/10 01:09:25;;;;;;;5.65;4.00;;;7.40;77.00;;;;;;5053798;28;20549;-82
2021/12/10 01:12:03;;;;;;;4.57;3.50;;;7.40;77.00;;;;;;5037608;28;20033;-83
2021/12/10 01:15:06;;;;;;;5.05;3.78;;;7.40;77.10;;;;;;5037877;28;20576;-82
2021/12/10 01:26:21;;;;;;;6.05;3.85;;;7.40;77.10;;;;;;5040637;28;20474;-82
2021/12/10 01:28:59;;;;;;;4.80;3.47;;;7.30;77.00;;;;;;5024450;28;20125;-82
2021/12/10 01:31:25;;;;;;;4.88;3.42;;;7.30;77.20;;;;;;5055848;28;20037;-82
2021/12/10 01:33:52;;;;;;;6.88;3.97;;;7.30;77.10;;;;;;5037635;28;20029;-82
2021/12/10 01:36:19;;;;;;;4.65;3.65;;;7.30;77.10;;;;;;5037036;28;20036;-82
2021/12/10 01:38:48;;;;;;;5.53;4.05;;;7.30;77.10;;;;;;5020603;28;20056;-83
2021/12/10 01:41:17;;;;;;;5.13;3.92;;;7.30;77.10;;;;;;5037041;28;20124;-82
2021/12/10 01:43:44;;;;;;;5.47;3.65;;;7.30;77.10;;;;;;5021677;28;20040;-83
2021/12/10 01:46:19;;;;;;;6.03;4.00;;;7.30;77.10;;;;;;5036797;28;20127;-82
2021/12/10 01:48:51;;;;;;;5.80;3.85;;;7.30;77.10;;;;;;5037041;28;20033;-82
2021/12/10 01:51:22;;;;;;;4.32;3.33;;;7.30;77.10;;;;;;5053456;28;20029;-82
2021/12/10 01:53:51;;;;;;;5.85;4.00;;;7.30;77.10;;;;;;5053494;28;20036;-82
2021/12/10 01:56:23;;;;;;;5.88;3.83;;;7.30;77.10;;;;;;5052853;28;20021;-84
2021/12/10 01:58:50;;;;;;;6.25;4.22;;;7.30;77.10;;;;;;5037076;28;20033;-83
2021/12/10 02:01:20;;;;;;;4.90;3.65;;;7.30;77.10;;;;;;5020378;28;20483;-81
2021/12/10 02:03:51;;;;;;;5.85;3.95;;;7.30;77.10;;;;;;5052805;28;20469;-82
2021/12/10 02:06:17;;;;;;;5.82;4.00;;;7.30;77.00;;;;;;5020944;28;20131;-83
2021/12/10 02:08:44;;;;;;;5.82;3.95;;;7.30;77.00;;;;;;5036829;28;20453;-83
2021/12/10 02:11:10;;;;;;;5.00;4.07;;;7.30;77.00;;;;;;5036491;28;20366;-82
2021/12/10 02:13:37;;;;;;;6.22;3.85;;;7.30;77.00;;;;;;5036660;28;20424;-82
2021/12/10 02:16:04;;;;;;;5.20;3.83;;;7.20;77.00;;;;;;5036574;28;20029;-82
2021/12/10 02:18:30;;;;;;;5.93;3.90;;;7.30;77.00;;;;;;5036452;28;20606;-82
2021/12/10 02:21:02;;;;;;;6.45;4.00;;;7.30;77.00;;;;;;5036378;28;20140;-83
2021/12/10 02:23:32;;;;;;;4.85;3.65;;;7.20;77.00;;;;;;5053661;28;20131;-83
2021/12/10 02:25:58;;;;;;;5.00;3.90;;;7.20;77.00;;;;;;5036109;28;20025;-82
2021/12/10 02:28:24;;;;;;;6.25;3.80;;;7.20;77.00;;;;;;5036105;28;20171;-84
2021/12/10 02:30:50;;;;;;;6.68;4.70;;;7.20;77.00;;;;;;5036691;28;20065;-83
2021/12/10 02:33:17;;;;;;;5.90;3.90;;;7.20;77.00;;;;;;5054398;28;20029;-83
2021/12/10 02:35:43;;;;;;;6.15;3.83;;;7.20;77.00;;;;;;5037270;28;20091;-84
2021/12/10 02:38:09;;;;;;;5.40;3.70;;;7.20;77.00;;;;;;5036682;28;20029;-83
2021/12/10 02:40:36;;;;;;;5.25;3.83;;;7.20;77.00;;;;;;5053017;28;20059;-84
2021/12/10 02:43:07;;;;;;;5.20;3.53;;;7.10;76.90;;;;;;5020226;28;20032;-83
2021/12/10 02:45:34;;;;;;;5.95;4.53;;;7.10;77.00;;;;;;5054166;28;20056;-83
2021/12/10 02:48:00;;;;;;;5.72;4.20;;;7.10;76.90;;;;;;5036768;28;20416;-84
2021/12/10 02:50:28;;;;;;;5.00;3.80;;;7.10;76.90;;;;;;5036427;28;20033;-83
2021/12/10 02:52:55;;;;;;;5.20;3.72;;;7.10;77.00;;;;;;5053441;28;20052;-84
2021/12/10 02:55:22;;;;;;;4.78;3.53;;;7.10;76.90;;;;;;5019669;28;20033;-85
2021/12/10 02:57:51;;;;;;;5.10;3.60;;;7.00;76.90;;;;;;5036853;28;20036;-83
2021/12/10 03:00:24;;;;;;;5.35;3.65;;;7.00;76.90;;;;;;5053708;28;20029;-83
2021/12/10 03:02:50;;;;;;;5.30;3.58;;;7.00;76.90;;;;;;5036424;28;20029;-83
2021/12/10 03:05:15;;;;;;;5.10;3.50;;;7.00;76.90;;;;;;5019602;28;20538;-83
2021/12/10 03:07:42;;;;;;;5.07;3.47;;;7.00;76.90;;;;;;5036163;28;20045;-83
2021/12/10 03:10:11;;;;;;;5.45;3.38;;;7.00;76.90;;;;;;5020365;28;20098;-84
2021/12/10 03:12:37;;;;;;;5.18;3.42;;;7.00;77.60;;;;;;5052539;28;20029;-83
2021/12/10 03:15:06;;;;;;;4.47;2.97;;;6.90;76.80;;;;;;5053812;28;20035;-84
2021/12/10 03:17:32;;;;;;;5.72;3.10;;;6.90;76.80;;;;;;5053241;28;20032;-86
2021/12/10 03:19:58;;;;;;;5.00;3.35;;;6.90;76.80;;;;;;5035593;28;20057;-84
2021/12/10 03:22:26;;;;;;;4.90;3.28;;;6.90;76.90;;;;;;5036090;28;20262;-84
2021/12/10 03:24:52;;;;;;;4.78;3.20;;;6.90;76.90;;;;;;5035967;28;20124;-86
2021/12/10 03:27:20;;;;;;;5.05;3.25;;;6.90;76.90;;;;;;5052238;28;20219;-84
2021/12/10 03:29:48;;;;;;;4.68;3.35;;;6.90;76.90;;;;;;5035951;28;20029;-83
2021/12/10 03:32:18;;;;;;;5.13;3.30;;;6.90;76.90;;;;;;5035598;28;20021;-84
2021/12/10 03:34:44;;;;;;;4.15;3.25;;;6.80;76.80;;;;;;5052961;28;20064;-83
2021/12/10 03:37:10;;;;;;;3.65;3.03;;;6.80;76.80;;;;;;5055283;28;20032;-82
2021/12/10 03:39:36;;;;;;;4.07;2.92;;;6.80;76.80;;;;;;5057432;28;20033;-83
2021/12/10 03:42:04;;;;;;;4.93;3.10;;;6.80;76.90;;;;;;5055626;28;20083;-84
2021/12/10 03:44:30;;;;;;;4.57;2.90;;;6.80;76.90;;;;;;5038980;28;20037;-83
2021/12/10 03:46:58;;;;;;;3.50;2.78;;;6.80;76.90;;;;;;5038832;28;20074;-83
2021/12/10 03:49:24;;;;;;;3.85;2.65;;;6.70;76.90;;;;;;5055819;28;20587;-86
2021/12/10 03:51:50;;;;;;;4.95;3.05;;;6.70;76.80;;;;;;5039278;28;20123;-82
2021/12/10 03:54:17;;;;;;;5.28;3.28;;;6.70;76.80;;;;;;5039603;28;20037;-83
2021/12/10 03:56:45;;;;;;;4.20;2.90;;;6.70;76.80;;;;;;5057071;28;20168;-85
2021/12/10 03:59:14;;;;;;;3.92;2.92;;;6.70;76.90;;;;;;5023531;28;20373;-83
2021/12/10 04:01:43;;;;;;;4.25;2.88;;;6.60;76.80;;;;;;5038893;28;20450;-84
2021/12/10 04:04:16;;;;;;;4.25;2.95;;;6.60;76.80;;;;;;5055337;28;20036;-84
2021/12/10 04:06:42;;;;;;;4.13;2.95;;;6.60;76.80;;;;;;5039804;28;20029;-83
2021/12/10 04:09:08;;;;;;;4.35;3.22;;;6.60;76.80;;;;;;5038953;28;20035;-83
2021/12/10 04:11:35;;;;;;;4.50;3.08;;;6.60;76.80;;;;;;5055738;28;20540;-82
2021/12/10 04:14:01;;;;;;;3.78;2.95;;;6.60;76.90;;;;;;5039015;28;20064;-82
2021/12/10 04:16:29;;;;;;;4.63;2.90;;;6.60;76.90;;;;;;5038782;28;20117;-83
2021/12/10 04:18:57;;;;;;;4.90;2.97;;;6.50;76.80;;;;;;5022143;28;20041;-85
2021/12/10 04:21:24;;;;;;;5.45;3.72;;;6.50;76.80;;;;;;5055561;28;20040;-84
2021/12/10 04:23:50;;;;;;;4.40;3.00;;;6.50;76.80;;;;;;5055242;28;20039;-84
2021/12/10 04:26:18;;;;;;;4.80;3.13;;;6.50;76.90;;;;;;5055141;28;20393;-83
2021/12/10 04:28:44;;;;;;;4.65;3.10;;;6.50;76.80;;;;;;5055314;28;20068;-84
2021/12/10 04:31:10;;;;;;;4.40;2.80;;;6.50;76.90;;;;;;5038316;28;20466;-86
2021/12/10 04:33:36;;;;;;;4.43;3.13;;;6.50;76.90;;;;;;5038618;28;20065;-84
2021/12/10 04:36:04;;;;;;;4.60;3.05;;;6.50;76.90;;;;;;5038379;28;20055;-83
2021/12/10 04:38:33;;;;;;;4.72;3.10;;;6.50;76.90;;;;;;5038245;28;20157;-85
2021/12/10 04:41:01;;;;;;;4.75;2.95;;;6.40;76.80;;;;;;5037931;28;20036;-82
2021/12/10 04:43:29;;;;;;;4.90;2.92;;;6.50;76.90;;;;;;5037707;28;20100;-88
2021/12/10 04:45:57;;;;;;;4.60;3.10;;;6.40;76.80;;;;;;5038068;28;20393;-83
2021/12/10 04:48:25;;;;;;;3.85;2.92;;;6.40;76.90;;;;;;5020719;28;20087;-83
2021/12/10 04:50:51;;;;;;;5.13;3.25;;;6.40;76.90;;;;;;5037906;28;20036;-84
2021/12/10 04:53:18;;;;;;;3.78;2.75;;;6.40;76.90;;;;;;5055026;28;20032;-82
2021/12/10 04:55:44;;;;;;;3.67;2.67;;;6.40;76.90;;;;;;5054578;28;20032;-82
2021/12/10 04:58:11;;;;;;;3.97;2.88;;;6.40;76.90;;;;;;5038183;28;20041;-82
2021/12/10 05:00:42;;;;;;;3.45;2.85;;;6.40;76.90;;;;;;5055159;28;20027;-82
2021/12/10 05:03:08;;;;;;;3.63;2.53;;;6.30;76.90;;;;;;5055490;28;20029;-82
2021/12/10 05:05:35;;;;;;;4.97;2.70;;;6.30;77.50;;;;;;5021256;28;20510;-82
2021/12/10 05:08:02;;;;;;;4.05;2.97;;;6.30;76.90;;;;;;5037910;28;20033;-82
2021/12/10 05:10:28;;;;;;;4.47;2.70;;;6.30;76.90;;;;;;5037510;28;20025;-85
2021/12/10 05:12:54;;;;;;;3.53;2.63;;;6.30;76.90;;;;;;5054446;28;20056;-83
2021/12/10 05:15:27;;;;;;;3.42;2.47;;;6.30;77.00;;;;;;5037609;28;20462;-83
2021/12/10 05:17:53;;;;;;;3.38;2.65;;;6.30;77.00;;;;;;5038039;28;20025;-82
2021/12/10 05:20:30;;;;;;;3.10;2.25;;;6.30;77.00;;;;;;5054572;28;20091;-82
2021/12/10 05:22:56;;;;;;;3.58;2.50;;;6.30;77.00;;;;;;5054449;28;20100;-83
2021/12/10 05:25:27;;;;;;;2.60;2.10;;;6.30;76.90;;;;;;5021072;28;20127;-82
2021/12/10 05:27:54;;;;;;;3.80;2.63;;;6.20;76.90;;;;;;5037602;28;20040;-83
2021/12/10 05:30:22;;;;;;;3.22;2.38;;;6.20;76.90;;;;;;5021220;28;20481;-82
2021/12/10 05:32:49;;;;;;;3.30;2.45;;;6.20;76.90;;;;;;5020991;28;20037;-82
2021/12/10 05:35:15;;;;;;;3.78;2.60;;;6.20;76.90;;;;;;5053912;28;20043;-83
2021/12/10 05:37:41;;;;;;;3.40;2.50;;;6.20;76.90;;;;;;5053862;28;20060;-83
2021/12/10 05:40:11;;;;;;;4.65;2.63;;;6.20;76.90;;;;;;5037148;28;20120;-82
2021/12/10 05:42:37;;;;;;;4.93;2.70;;;6.20;77.60;;;;;;5054579;28;20033;-83
2021/12/10 05:45:04;;;;;;;4.53;2.60;;;6.20;77.00;;;;;;5053542;28;20060;-82
2021/12/10 05:47:30;;;;;;;4.28;2.83;;;6.20;77.00;;;;;;5053455;28;20029;-82
2021/12/10 05:49:55;;;;;;;5.32;2.97;;;6.20;77.00;;;;;;5037237;28;20032;-83
2021/12/10 05:52:22;;;;;;;3.78;2.72;;;6.10;76.90;;;;;;5036661;28;20033;-82
2021/12/10 05:54:50;;;;;;;4.72;2.72;;;6.20;76.90;;;;;;5036933;28;20021;-82
2021/12/10 05:57:16;;;;;;;4.47;2.60;;;6.20;77.00;;;;;;5036824;28;20083;-83
2021/12/10 05:59:42;;;;;;;3.75;2.65;;;6.10;76.90;;;;;;5052762;28;20028;-83
2021/12/10 06:02:08;;;;;;;4.82;3.08;;;6.10;76.90;;;;;;5036571;28;20029;-83
2021/12/10 06:04:34;;;;;;;4.70;2.75;;;6.10;76.90;;;;;;5036529;28;20029;-84
2021/12/10 06:07:01;;;;;;;4.75;2.90;;;6.10;76.90;;;;;;5020549;28;20037;-83
2021/12/10 06:09:27;;;;;;;4.78;2.90;;;6.10;77.00;;;;;;5053147;28;20025;-84
2021/12/10 06:11:53;;;;;;;6.22;3.53;;;6.10;77.00;;;;;;5052883;28;20025;-82
2021/12/10 06:14:19;;;;;;;4.53;2.70;;;6.10;77.00;;;;;;5052828;28;20033;-82
2021/12/10 06:16:45;;;;;;;3.95;3.10;;;6.10;77.00;;;;;;5053785;28;20033;-83
2021/12/10 06:19:11;;;;;;;4.30;2.70;;;6.10;77.00;;;;;;5037439;28;20029;-84
2021/12/10 06:21:38;;;;;;;3.67;2.60;;;6.10;77.00;;;;;;5036988;28;20044;-84
2021/12/10 06:24:05;;;;;;;5.20;3.30;;;6.10;77.00;;;;;;5036571;28;20037;-82
2021/12/10 06:26:32;;;;;;;4.25;2.63;;;6.00;77.00;;;;;;5052843;28;20029;-83
2021/12/10 06:28:58;;;;;;;4.28;2.85;;;6.10;77.00;;;;;;5052773;28;20033;-83
2021/12/10 06:31:24;;;;;;;4.03;2.60;;;6.10;77.00;;;;;;5020637;28;20043;-82
2021/12/10 06:33:51;;;;;;;4.80;2.85;;;6.10;77.10;;;;;;5036414;28;20044;-81
2021/12/10 06:36:19;;;;;;;4.47;2.70;;;6.00;77.00;;;;;;5020509;28;20120;-82
2021/12/10 06:38:46;;;;;;;4.63;2.78;;;6.10;77.10;;;;;;5035935;28;20030;-83
2021/12/10 06:41:14;;;;;;;5.00;2.80;;;6.00;77.00;;;;;;5053803;28;20029;-82
2021/12/10 06:43:40;;;;;;;4.72;2.60;;;6.00;77.00;;;;;;5035977;28;20025;-86
2021/12/10 06:46:06;;;;;;;4.63;2.60;;;6.00;77.00;;;;;;5036170;28;20025;-82
2021/12/10 06:48:32;;;;;;;4.13;2.63;;;6.00;77.00;;;;;;5036436;28;20087;-81
2021/12/10 06:51:05;;;;;;;3.88;2.53;;;6.00;77.00;;;;;;5052567;28;20068;-79
2021/12/10 06:53:31;;;;;;;3.67;2.42;;;6.00;77.10;;;;;;5035842;28;20025;-83
2021/12/10 06:55:59;;;;;;;4.07;2.75;;;6.00;77.00;;;;;;5036390;28;20029;-82
2021/12/10 06:58:27;;;;;;;4.72;2.78;;;6.00;77.00;;;;;;5019777;28;20102;-81
2021/12/10 07:00:57;;;;;;;4.47;2.38;;;6.00;77.00;;;;;;5035821;28;20029;-82
2021/12/10 07:03:26;;;;;;;3.63;2.33;;;6.00;77.10;;;;;;5053514;28;20032;-81
2021/12/10 07:05:53;;;;;;;4.43;2.80;;;6.00;77.00;;;;;;5052277;28;20032;-80
2021/12/10 07:08:21;;;;;;;4.10;2.45;;;6.00;77.10;;;;;;5052045;28;20053;-82
2021/12/10 07:10:48;;;;;;;4.30;2.40;;;6.00;77.10;;;;;;5053668;28;20034;-83
2021/12/10 07:13:15;;;;;;;4.50;2.40;;;6.00;77.00;;;;;;5040123;28;20393;-81
2021/12/10 07:15:43;;;;;;;3.80;2.17;;;6.00;77.00;;;;;;5039584;28;20029;-83
2021/12/10 07:18:10;;;;;;;3.20;2.20;;;6.00;77.10;;;;;;5056512;28;20103;-83
2021/12/10 07:20:37;;;;;;;4.75;2.40;;;6.00;77.10;;;;;;5039535;28;20051;-81
2021/12/10 07:23:03;;;;;;;3.63;2.03;;;6.00;77.10;;;;;;5039409;28;20033;-83
2021/12/10 07:25:29;;;;;;;4.68;2.55;;;6.00;77.10;;;;;;5039524;28;20103;-81
2021/12/10 07:27:55;;;;;;;4.30;2.22;;;6.00;77.00;;;;;;5023308;28;20473;-81
2021/12/10 07:30:26;;;;;;;3.53;2.20;;;6.00;77.80;;;;;;5039733;28;20482;-83
2021/12/10 07:32:52;;;;;;;2.85;2.00;;;6.10;77.20;;;;;;5056234;28;20103;-82
2021/12/10 07:35:19;;;;;;;3.88;2.10;;;6.00;77.10;;;;;;5039230;28;20029;-85
2021/12/10 07:37:45;;;;;;;2.60;1.95;;;6.10;77.20;;;;;;5038668;28;20067;-80
2021/12/10 07:40:14;;;;;;;4.35;2.47;;;6.00;77.10;;;;;;5023466;28;20029;-81
2021/12/10 07:42:40;;;;;;;4.18;2.17;;;6.10;77.30;;;;;;5039503;28;20055;-85
2021/12/10 07:45:07;;;;;;;4.28;2.15;;;6.00;77.20;;;;;;5023350;28;20033;-82
2021/12/10 07:47:36;;;;;;;3.63;2.38;;;6.00;77.10;;;;;;5039093;28;20087;-82
2021/12/10 07:50:08;;;;;;;2.78;2.03;;;6.10;77.30;;;;;;5039771;28;20045;-83
2021/12/10 07:52:35;;;;;;;2.55;1.85;;;6.00;77.20;;;;;;5055593;28;20029;-80
2021/12/10 07:55:05;;;;;;;3.67;1.90;;;6.00;77.20;;;;;;5039597;28;20029;-81
2021/12/10 07:57:31;;;;;;;4.72;2.10;;;6.10;77.30;;;;;;5040333;28;20060;-83
2021/12/10 07:59:58;;;;;;;3.42;2.17;;;6.10;77.20;;;;;;5039244;28;20424;-81
2021/12/10 08:02:24;;;;;;;3.63;2.10;;;6.10;77.20;;;;;;5038407;28;20033;-79
2021/12/10 08:04:50;;;;;;;3.85;2.15;;;6.10;77.20;;;;;;5038917;28;20116;-81
2021/12/10 08:07:17;;;;;;;3.25;2.20;;;6.10;77.20;;;;;;5038903;28;20132;-81
2021/12/10 08:09:43;;;;;;;3.63;2.10;;;6.10;77.20;;;;;;5055591;28;20025;-81
2021/12/10 08:12:10;;;;;;;2.92;2.00;;;6.10;77.20;;;;;;5055169;28;20040;-82
2021/12/10 08:14:36;;;;;;;3.80;2.28;;;6.10;77.20;;;;;;5038508;28;20033;-80
2021/12/10 08:17:05;;;;;;;3.72;2.10;;;6.10;77.20;;;;;;5055831;28;20040;-81
2021/12/10 08:19:31;;;;;;;3.35;2.20;;;6.10;77.20;;;;;;5038534;28;20057;-85
2021/12/10 08:21:58;;;;;;;2.70;1.80;;;6.10;77.20;;;;;;5021853;28;20037;-81
2021/12/10 08:24:24;;;;;;;2.67;1.80;;;6.10;77.20;;;;;;5021892;28;20037;-81
2021/12/10 08:26:50;;;;;;;2.33;1.63;;;6.10;77.30;;;;;;5056247;28;20056;-83
2021/12/10 08:29:20;;;;;;;2.42;1.90;;;6.10;77.20;;;;;;5040324;28;20071;-81
2021/12/10 08:31:46;;;;;;;3.33;2.00;;;6.20;77.30;;;;;;5054972;28;20020;-85
2021/12/10 08:34:12;;;;;;;2.55;1.80;;;6.10;77.30;;;;;;5055063;28;20462;-81
2021/12/10 08:36:38;;;;;;;3.22;1.85;;;6.20;77.30;;;;;;5039634;28;20036;-81
2021/12/10 08:39:08;;;;;;;2.35;1.80;;;6.20;77.30;;;;;;5056077;28;20473;-81
2021/12/10 08:41:34;;;;;;;3.10;1.92;;;6.20;77.30;;;;;;5055959;28;20025;-83
2021/12/10 08:44:02;;;;;;;1.95;1.73;;;6.20;77.30;;;;;;5038731;28;20377;-81
2021/12/10 08:46:28;;;;;;;3.25;1.95;;;6.20;77.30;;;;;;5056063;28;20035;-81
2021/12/10 08:48:57;;;;;;;2.95;1.90;;;6.20;77.30;;;;;;5039021;28;20031;-81
2021/12/10 08:51:29;;;;;;;3.88;2.10;;;6.20;77.30;;;;;;5054306;28;20068;-81
2021/12/10 08:53:55;;;;;;;3.22;2.10;;;6.20;77.30;;;;;;5037737;28;20121;-83
2021/12/10 08:56:21;;;;;;;2.67;1.88;;;6.20;77.30;;;;;;5037551;28;20032;-82
2021/12/10 08:58:48;;;;;;;3.20;1.90;;;6.20;77.30;;;;;;5038279;28;20108;-82
2021/12/10 09:01:23;;;;;;;3.50;1.98;;;6.20;77.40;;;;;;5037870;28;20052;-79
2021/12/10 09:03:51;;;;;;;;;;;6.20;77.40;;;;;;5054796;28;20041;-87
2021/12/10 09:06:21;;;;;;;2.80;1.90;;;6.20;77.30;;;;;;5043564;28;19932;-82
2021/12/10 09:08:48;;;;;;;2.05;1.77;;;6.20;77.20;;;;;;5045781;28;20119;-83
2021/12/10 09:11:14;;;;;;;2.95;1.95;;;6.20;77.30;;;;;;5043907;28;20059;-82
2021/12/10 09:13:42;;;;;;;2.75;1.90;;;6.20;77.40;;;;;;5056074;28;20036;-82
2021/12/10 09:16:18;;;;;;;3.83;1.95;;;6.20;77.40;;;;;;5055675;28;20025;-82
2021/12/10 09:18:44;;;;;;;3.13;2.00;;;6.30;77.50;;;;;;5037650;28;20033;-82
2021/12/10 09:21:10;;;;;;;3.35;2.00;;;6.20;77.40;;;;;;5037335;28;20091;-82
2021/12/10 09:23:39;;;;;;;3.25;2.00;;;6.30;77.50;;;;;;5038154;28;20124;-84
2021/12/10 09:26:10;;;;;;;3.83;2.20;;;6.30;77.50;;;;;;5020638;28;20033;-82
2021/12/10 09:28:40;;;;;;;2.65;1.92;;;6.30;77.50;;;;;;5038075;28;20120;-83
2021/12/10 09:31:07;;;;;;;2.78;2.10;;;6.30;77.50;;;;;;5037506;28;20496;-82
2021/12/10 09:33:33;;;;;;;2.88;2.10;;;6.40;77.50;;;;;;5054403;28;20029;-80
2021/12/10 09:35:59;;;;;;;3.88;2.10;;;6.40;77.50;;;;;;5038214;28;20477;-84
2021/12/10 09:38:28;;;;;;;4.03;2.30;;;6.40;77.50;;;;;;5037847;28;20094;-87
2021/12/10 09:41:09;;;;;;;2.30;1.98;;;6.40;77.50;;;;;;5039056;28;20052;-82
2021/12/10 09:43:38;;;;;;;2.92;1.85;;;6.40;77.50;;;;;;5038014;28;20078;-90
2021/12/10 09:46:11;;;;;;;3.75;2.28;;;6.40;77.50;;;;;;5037762;28;20039;-87
2021/12/10 09:48:49;;;;;;;2.80;2.05;;;6.40;77.50;;;;;;5054838;28;20369;-87
2021/12/10 09:51:31;;;;;;;2.83;2.00;;;6.40;77.50;;;;;;5037894;28;20033;-82
2021/12/10 09:54:00;;;;;;;3.30;2.00;;;6.40;77.50;;;;;;5036866;28;20029;-82
2021/12/10 09:56:27;;;;;;;3.65;2.03;;;6.40;77.40;;;;;;5036949;28;20535;-83
2021/12/10 09:58:56;;;;;;;3.45;2.13;;;6.40;77.50;;;;;;5036662;28;20021;-79
2021/12/10 10:01:31;;;;;;;3.13;1.98;;;6.50;77.50;;;;;;5052920;28;20071;-79
2021/12/10 10:04:01;;;;;;;3.45;1.95;;;6.50;77.60;;;;;;5035928;28;20095;-79
2021/12/10 10:06:39;;;;;;;2.95;2.00;;;6.50;77.50;;;;;;5053962;28;20035;-79
2021/12/10 10:09:07;;;;;;;2.85;2.00;;;6.50;77.50;;;;;;5035688;28;20033;-79
2021/12/10 10:11:34;;;;;;;3.00;2.30;;;6.50;77.50;;;;;;5052527;28;20565;-80
2021/12/10 10:14:01;;;;;;;3.72;2.28;;;6.50;77.50;;;;;;5036233;28;20079;-79
2021/12/10 10:16:29;;;;;;;3.03;2.08;;;6.50;77.50;;;;;;5036233;28;20033;-79
2021/12/10 10:18:56;;;;;;;3.53;2.40;;;6.60;77.50;;;;;;5053506;28;20484;-81
2021/12/10 10:21:30;;;;;;;2.85;2.15;;;6.60;77.50;;;;;;5052501;28;20048;-80
2021/12/10 10:23:57;;;;;;;2.90;2.10;;;6.60;77.60;;;;;;5035728;28;20044;-80
2021/12/10 10:26:33;;;;;;;4.38;2.08;;;6.60;77.50;;;;;;5052450;28;20025;-79
2021/12/10 10:29:08;;;;;;;4.15;2.00;;;6.60;77.60;;;;;;5036026;28;20037;-79
2021/12/10 10:31:39;;;;;;;2.88;2.22;;;6.60;77.50;;;;;;5036612;28;20029;-79
2021/12/10 10:34:07;;;;;;;3.35;2.10;;;6.60;77.50;;;;;;5052219;28;20040;-81
2021/12/10 10:36:35;;;;;;;2.83;1.90;;;6.60;77.50;;;;;;5053316;28;20017;-81
2021/12/10 10:39:15;;;;;;;2.58;2.00;;;6.70;77.60;;;;;;5035971;28;20033;-81
2021/12/10 10:41:45;;;;;;;2.85;1.90;;;6.70;77.60;;;;;;5052508;28;20481;-80
2021/12/10 10:44:15;;;;;;;2.08;1.67;;;6.70;77.50;;;;;;5035655;28;20025;-83
2021/12/10 10:46:41;;;;;;;3.22;2.00;;;6.70;77.50;;;;;;5055277;28;20029;-80
2021/12/10 10:49:07;;;;;;;2.80;2.00;;;6.70;77.50;;;;;;5023485;28;20385;-81
2021/12/10 10:51:37;;;;;;;2.97;1.70;;;6.70;77.50;;;;;;5057536;28;20029;-82
2021/12/10 10:54:08;;;;;;;3.70;2.13;;;6.80;77.50;;;;;;5057553;28;20545;-81
2021/12/10 10:56:43;;;;;;;2.40;2.00;;;6.80;77.50;;;;;;5057479;28;20056;-81
2021/12/10 10:59:24;;;;;;;2.65;1.80;;;6.80;77.50;;;;;;5057024;28;20033;-81
2021/12/10 11:02:08;;;;;;;2.90;1.88;;;6.80;77.50;;;;;;5057135;28;20025;-81
2021/12/10 11:04:43;;;;;;;2.83;1.92;;;6.80;77.50;;;;;;5056934;28;20033;-82
2021/12/10 11:07:23;;;;;;;;;;;6.80;77.50;;;;;;5056926;28;20032;-81
2021/12/10 11:09:55;;;;;;;2.55;1.58;;;6.80;77.40;;;;;;5040001;28;20015;-82
2021/12/10 11:12:33;;;;;;;3.13;1.70;;;6.80;77.40;;;;;;5040067;28;20020;-83
2021/12/10 11:15:01;;;;;;;2.88;1.77;;;6.80;77.50;;;;;;5039998;28;20025;-84
2021/12/10 11:17:40;;;;;;;3.88;2.10;;;6.90;77.60;;;;;;5022735;28;20116;-83
2021/12/10 11:20:16;;;;;;;2.83;1.67;;;6.90;77.60;;;;;;5056415;28;20056;-84
2021/12/10 11:23:09;;;;;;;3.17;1.80;;;6.90;77.60;;;;;;5040132;28;20036;-84
2021/12/10 11:25:38;;;;;;;2.38;1.88;;;6.90;77.70;;;;;;5053335;28;20596;-83
2021/12/10 11:28:09;;;;;;;3.10;2.00;;;6.90;77.40;;;;;;5039354;28;20473;-84
2021/12/10 11:30:39;;;;;;;3.42;2.00;;;6.90;77.50;;;;;;5056009;28;20032;-81
2021/12/10 11:33:14;;;;;;;2.15;1.70;;;7.00;77.50;;;;;;5056069;28;20033;-83
2021/12/10 11:35:44;;;;;;;2.50;1.80;;;7.00;77.50;;;;;;5056193;28;20480;-83
2021/12/10 11:38:19;;;;;;;1.85;1.50;;;7.00;77.40;;;;;;5039962;28;20029;-82
2021/12/10 11:40:54;;;;;;;;;;;7.00;77.40;;;;;;5056845;28;20531;-85
2021/12/10 11:46:31;;;;;;;4.53;1.90;;;7.00;77.20;;;;;;5056140;28;20580;-83
2021/12/10 11:49:06;;;;;;;2.90;1.80;;;7.10;77.50;;;;;;5057472;28;20462;-82
2021/12/10 11:52:01;;;;;;;3.30;1.73;;;7.10;77.50;;;;;;5056398;28;20111;-81
2021/12/10 11:54:40;;;;;;;2.17;1.80;;;7.10;77.50;;;;;;5038886;28;20033;-86
2021/12/10 11:57:16;;;;;;;2.65;1.52;;;7.10;77.40;;;;;;5055794;28;20040;-83
2021/12/10 11:59:47;;;;;;;3.20;1.67;;;7.10;77.40;;;;;;5056711;28;20029;-83
2021/12/10 12:02:24;;;;;;;3.28;1.70;;;7.10;77.30;;;;;;5039730;28;20029;-82
2021/12/10 12:04:55;;;;;;;1.98;1.50;;;7.20;77.40;;;;;;5039079;28;20069;-83
2021/12/10 12:07:24;;;;;;;3.00;1.88;;;7.20;77.40;;;;;;5039271;28;20033;-82
2021/12/10 12:09:54;;;;;;;2.28;1.75;;;7.20;77.30;;;;;;5055242;28;20112;-80
2021/12/10 12:12:37;;;;;;;3.65;1.90;;;7.20;77.30;;;;;;5049160;28;20086;-86
2021/12/10 12:15:14;;;;;;;2.22;1.50;;;7.20;77.30;;;;;;5056421;28;20116;-82
2021/12/10 12:17:50;;;;;;;2.17;1.60;;;7.20;77.20;;;;;;5058100;28;20083;-84
2021/12/10 12:20:36;;;;;;;2.55;1.85;;;7.30;77.30;;;;;;5056987;28;20115;-82
2021/12/10 12:26:10;;;;;;;2.17;1.60;;;7.30;77.30;;;;;;5055773;28;20132;-82
2021/12/10 12:28:49;;;;;;;3.15;1.90;;;7.30;77.20;;;;;;5056684;28;20021;-83
2021/12/10 12:31:41;;;;;;;1.88;1.58;;;7.30;77.20;;;;;;5038870;28;20037;-86
2021/12/10 12:34:17;;;;;;;2.90;1.75;;;7.30;77.30;;;;;;5056254;28;20040;-88
2021/12/10 12:36:52;;;;;;;2.28;1.80;;;7.40;77.20;;;;;;5038365;28;20033;-82
2021/12/10 12:39:46;;;;;;;3.13;1.88;;;7.40;77.20;;;;;;5038784;28;20025;-86
2021/12/10 12:42:22;;;;;;;2.00;1.73;;;7.40;77.20;;;;;;5054913;28;20065;-83
2021/12/10 12:44:51;;;;;;;3.10;1.88;;;7.40;77.10;;;;;;5055857;28;20068;-83
2021/12/10 12:47:19;;;;;;;2.17;1.52;;;7.40;77.10;;;;;;5038143;28;20454;-82
2021/12/10 12:49:48;;;;;;;2.20;1.58;;;7.40;77.10;;;;;;5038850;28;20098;-85
2021/12/10 12:52:43;;;;;;;2.47;1.75;;;7.50;77.20;;;;;;5038959;28;20429;-83
2021/12/10 12:55:12;;;;;;;1.90;1.50;;;7.40;77.20;;;;;;5038337;28;20033;-85
2021/12/10 12:57:43;;;;;;;1.65;1.42;;;7.50;77.00;;;;;;5038783;28;20094;-81
2021/12/10 13:00:16;;;;;;;2.47;1.65;;;7.50;77.10;;;;;;5037943;28;20025;-86
2021/12/10 13:02:42;;;;;;;2.65;1.73;;;7.50;77.00;;;;;;5054422;28;20060;-82
2021/12/10 13:05:14;;;;;;;2.60;2.00;;;7.50;77.00;;;;;;5054637;28;20033;-84
2021/12/10 13:07:40;;;;;;;2.05;1.40;;;7.50;77.20;;;;;;5037713;28;20120;-84
2021/12/10 13:10:14;;;;;;;3.17;1.98;;;7.50;77.00;;;;;;5020617;28;20492;-84
2021/12/10 13:12:53;;;;;;;2.60;1.70;;;7.50;77.00;;;;;;5039115;28;20377;-82
2021/12/10 13:15:26;;;;;;;2.60;1.70;;;7.60;77.00;;;;;;5053768;28;20044;-81
2021/12/10 13:18:02;;;;;;;2.22;1.60;;;7.60;77.00;;;;;;5037191;28;20068;-81
2021/12/10 13:20:36;;;;;;;2.08;1.60;;;7.60;77.00;;;;;;5053776;28;20079;-84
2021/12/10 13:23:09;;;;;;;3.33;1.77;;;7.60;77.00;;;;;;5037325;28;20028;-81
2021/12/10 13:25:37;;;;;;;2.10;1.55;;;7.60;77.00;;;;;;5054826;28;20037;-82
2021/12/10 13:28:03;;;;;;;1.88;1.40;;;7.70;77.00;;;;;;5037377;28;20356;-85